Time;durP1;ratioP1;P1;durP2;ratioP2;P2;SDS_P1;SDS_P2;PMS_P1;PMS_P2;Temp;Humidity;BMP_temperature;BMP_pressure;BME280_temperature;BME280_humidity;BME280_pressure;Samples;Min_cycle;Max_cycle;Signal;HPM_P1;HPM_P2
2023/10/20 00:00:07;;;;;;;1.03;0.90;;;;;;;;;;5056277;28;20405;-78
2023/10/20 00:02:34;;;;;;;2.10;0.57;;;;;;;;;;5074228;28;20419;-82
2023/10/20 00:05:03;;;;;;;1.60;0.60;;;;;;;;;;5074076;28;20413;-83
2023/10/20 00:07:29;;;;;;;1.20;0.67;;;;;;;;;;5074061;28;20424;-82
2023/10/20 00:09:55;;;;;;;1.27;0.60;;;;;;;;;;5056296;28;20419;-77
2023/10/20 00:12:21;;;;;;;1.40;0.50;;;;;;;;;;5073744;28;20787;-86
2023/10/20 00:14:47;;;;;;;1.10;0.60;;;;;;;;;;5073858;28;20483;-77
2023/10/20 00:17:13;;;;;;;2.13;0.90;;;;;;;;;;5073883;28;20411;-84
2023/10/20 00:19:39;;;;;;;2.10;0.23;;;;;;;;;;5073866;28;20414;-81
2023/10/20 00:22:05;;;;;;;2.07;0.20;;;;;;;;;;5074327;28;20408;-81
2023/10/20 00:24:31;;;;;;;1.50;0.37;;;;;;;;;;5076322;28;20415;-78
2023/10/20 00:26:57;;;;;;;1.00;0.27;;;;;;;;;;5074554;28;20409;-77
2023/10/20 00:29:23;;;;;;;1.17;0.33;;;;;;;;;;5062892;28;20961;-86
2023/10/20 00:31:48;;;;;;;1.07;0.30;;;;;;;;;;5053657;28;20413;-82
2023/10/20 00:34:15;;;;;;;0.70;0.33;;;;;;;;;;5053636;28;20545;-85
2023/10/20 00:36:41;;;;;;;0.80;0.50;;;;;;;;;;5053576;28;20423;-83
2023/10/20 00:39:07;;;;;;;0.87;0.30;;;;;;;;;;5053524;28;20909;-78
2023/10/20 00:41:35;;;;;;;0.70;0.20;;;;;;;;;;5053315;28;20440;-87
2023/10/20 00:44:01;;;;;;;1.40;0.50;;;;;;;;;;5053718;28;20406;-83
2023/10/20 00:46:27;;;;;;;1.70;0.57;;;;;;;;;;5053342;28;20926;-76
2023/10/20 00:48:53;;;;;;;0.83;0.30;;;;;;;;;;5053535;28;20848;-77
2023/10/20 00:51:19;;;;;;;1.30;0.70;;;;;;;;;;5054254;28;20541;-85
2023/10/20 00:53:47;;;;;;;1.63;0.30;;;;;;;;;;5035437;28;20441;-84
2023/10/20 00:56:13;;;;;;;1.60;0.60;;;;;;;;;;5052892;28;20505;-83
2023/10/20 00:58:39;;;;;;;2.13;0.70;;;;;;;;;;5053258;28;20402;-83
2023/10/20 01:01:05;;;;;;;0.90;0.37;;;;;;;;;;5063382;28;20438;-78
2023/10/20 01:03:35;;;;;;;1.23;0.40;;;;;;;;;;5073181;28;20470;-75
2023/10/20 01:06:03;;;;;;;1.17;0.77;;;;;;;;;;5073014;28;20424;-75
2023/10/20 01:08:28;;;;;;;1.97;0.40;;;;;;;;;;5073122;28;20482;-80
2023/10/20 01:10:54;;;;;;;1.80;0.80;;;;;;;;;;5072776;28;20413;-83
2023/10/20 01:13:23;;;;;;;2.03;0.90;;;;;;;;;;5073078;28;20473;-81
2023/10/20 01:15:50;;;;;;;1.70;0.63;;;;;;;;;;5072952;28;20474;-82
2023/10/20 01:18:16;;;;;;;1.10;0.70;;;;;;;;;;5072983;28;20446;-79
2023/10/20 01:20:42;;;;;;;1.17;0.60;;;;;;;;;;5072970;28;20958;-84
2023/10/20 01:23:07;;;;;;;2.70;1.20;;;;;;;;;;5073037;28;20434;-86
2023/10/20 01:25:33;;;;;;;1.33;0.60;;;;;;;;;;5072979;28;20796;-77
2023/10/20 01:27:59;;;;;;;3.07;1.60;;;;;;;;;;5072576;28;20742;-78
2023/10/20 01:30:25;;;;;;;2.13;0.73;;;;;;;;;;5072942;28;20405;-77
2023/10/20 01:32:51;;;;;;;1.43;0.57;;;;;;;;;;5079407;28;20851;-77
2023/10/20 01:35:17;;;;;;;1.67;0.67;;;;;;;;;;5076994;28;20477;-75
2023/10/20 01:37:43;;;;;;;1.70;1.07;;;;;;;;;;5076922;28;20411;-82
2023/10/20 01:40:11;;;;;;;2.20;1.03;;;;;;;;;;5076815;28;20417;-78
2023/10/20 01:42:38;;;;;;;1.43;0.90;;;;;;;;;;5076663;28;20408;-80
2023/10/20 01:45:04;;;;;;;2.70;1.57;;;;;;;;;;5076819;28;20449;-75
2023/10/20 01:47:30;;;;;;;2.70;1.10;;;;;;;;;;5076736;28;20952;-81
2023/10/20 01:49:56;;;;;;;3.53;1.43;;;;;;;;;;5076744;28;20421;-84
2023/10/20 01:52:22;;;;;;;2.90;2.00;;;;;;;;;;5076800;28;20408;-83
2023/10/20 01:54:48;;;;;;;2.20;0.97;;;;;;;;;;5076601;28;20480;-83
2023/10/20 01:57:14;;;;;;;2.33;0.97;;;;;;;;;;5076306;28;20392;-83
2023/10/20 01:59:40;;;;;;;3.70;2.87;;;;;;;;;;5076555;28;20412;-80
2023/10/20 02:02:06;;;;;;;2.63;2.10;;;;;;;;;;5076510;28;20408;-79
2023/10/20 02:04:32;;;;;;;3.00;1.27;;;;;;;;;;5076436;28;20412;-82
2023/10/20 02:06:58;;;;;;;2.43;1.77;;;;;;;;;;5063114;28;20428;-79
2023/10/20 02:09:25;;;;;;;3.57;1.60;;;;;;;;;;5056459;28;20221;-80
2023/10/20 02:11:51;;;;;;;1.83;1.60;;;;;;;;;;5056005;28;20412;-82
2023/10/20 02:14:17;;;;;;;3.20;2.40;;;;;;;;;;5056194;28;20900;-82
2023/10/20 02:16:43;;;;;;;2.07;1.80;;;;;;;;;;5056189;28;20495;-82
2023/10/20 02:19:10;;;;;;;2.03;0.90;;;;;;;;;;5056082;28;20404;-77
2023/10/20 02:21:37;;;;;;;3.23;1.57;;;;;;;;;;5056053;28;20825;-82
2023/10/20 02:24:03;;;;;;;2.10;1.67;;;;;;;;;;5038307;28;20415;-81
2023/10/20 02:26:29;;;;;;;3.37;2.30;;;;;;;;;;5055732;28;20417;-75
2023/10/20 02:28:55;;;;;;;3.83;1.20;;;;;;;;;;5055994;28;20511;-83
2023/10/20 02:31:21;;;;;;;2.43;1.43;;;;;;;;;;5063539;28;20455;-85
2023/10/20 02:33:47;;;;;;;2.00;1.30;;;;;;;;;;5075959;28;20419;-77
2023/10/20 02:36:17;;;;;;;3.03;1.50;;;;;;;;;;5075866;28;20463;-81
2023/10/20 02:38:43;;;;;;;1.70;1.40;;;;;;;;;;5075932;28;20464;-84
2023/10/20 02:41:09;;;;;;;1.50;0.73;;;;;;;;;;5069586;28;20425;-84
2023/10/20 02:43:36;;;;;;;2.40;1.20;;;;;;;;;;5064642;28;20417;-85
2023/10/20 02:46:02;;;;;;;2.60;0.90;;;;;;;;;;5075266;28;20418;-85
2023/10/20 02:48:28;;;;;;;2.50;1.40;;;;;;;;;;5075011;28;20463;-79
2023/10/20 02:50:54;;;;;;;2.27;1.00;;;;;;;;;;5071684;28;20421;-84
2023/10/20 02:53:20;;;;;;;2.60;1.10;;;;;;;;;;5075669;28;20418;-87
2023/10/20 02:55:46;;;;;;;2.60;1.67;;;;;;;;;;5071958;28;20533;-79
2023/10/20 02:58:12;;;;;;;3.63;0.73;;;;;;;;;;5075484;28;20885;-76
2023/10/20 03:00:45;;;;;;;2.23;0.77;;;;;;;;;;5062308;28;20446;-76
2023/10/20 03:03:12;;;;;;;2.30;1.27;;;;;;;;;;5067595;28;20456;-83
2023/10/20 03:05:38;;;;;;;2.20;0.80;;;;;;;;;;5066450;28;20436;-81
2023/10/20 03:08:05;;;;;;;1.97;1.50;;;;;;;;;;5074538;28;20424;-81
2023/10/20 03:10:31;;;;;;;2.03;1.03;;;;;;;;;;5073169;28;20428;-76
2023/10/20 03:12:56;;;;;;;2.10;0.63;;;;;;;;;;5074669;28;21068;-82
2023/10/20 03:15:23;;;;;;;1.33;0.73;;;;;;;;;;5075037;28;20480;-80
2023/10/20 03:17:49;;;;;;;2.30;1.07;;;;;;;;;;5073985;28;20921;-81
2023/10/20 03:20:16;;;;;;;2.33;0.80;;;;;;;;;;5075101;28;20421;-85
2023/10/20 03:22:42;;;;;;;1.70;0.90;;;;;;;;;;5075019;28;20405;-84
2023/10/20 03:25:10;;;;;;;1.33;0.70;;;;;;;;;;5075059;28;20423;-84
2023/10/20 03:27:36;;;;;;;2.10;0.80;;;;;;;;;;5074717;28;20412;-83
2023/10/20 03:30:02;;;;;;;1.47;0.53;;;;;;;;;;5075035;28;20424;-84
2023/10/20 03:32:27;;;;;;;2.30;0.60;;;;;;;;;;5074879;28;20806;-83
2023/10/20 03:34:53;;;;;;;1.40;1.07;;;;;;;;;;5074828;28;20468;-85
2023/10/20 03:37:19;;;;;;;1.23;0.80;;;;;;;;;;5074889;28;20408;-85
2023/10/20 03:39:45;;;;;;;1.40;0.70;;;;;;;;;;5074761;28;20403;-83
2023/10/20 03:42:13;;;;;;;1.30;0.50;;;;;;;;;;5074370;28;20409;-78
2023/10/20 03:44:39;;;;;;;2.33;1.00;;;;;;;;;;5074683;28;20415;-77
2023/10/20 03:47:05;;;;;;;1.23;0.57;;;;;;;;;;5074320;28;20448;-77
2023/10/20 03:49:35;;;;;;;1.67;0.50;;;;;;;;;;5074543;28;20410;-84
2023/10/20 03:52:01;;;;;;;2.83;1.20;;;;;;;;;;5074458;28;20404;-83
2023/10/20 03:54:30;;;;;;;2.80;1.33;;;;;;;;;;5074324;28;20533;-84
2023/10/20 03:56:57;;;;;;;1.27;0.70;;;;;;;;;;5074111;28;20408;-84
2023/10/20 03:59:24;;;;;;;1.33;0.60;;;;;;;;;;5073979;28;20408;-82
2023/10/20 04:01:51;;;;;;;1.87;0.80;;;;;;;;;;5074101;28;20893;-84
2023/10/20 04:04:17;;;;;;;2.03;1.00;;;;;;;;;;5074187;28;20413;-84
2023/10/20 04:06:46;;;;;;;2.20;0.50;;;;;;;;;;5074158;28;20841;-79
2023/10/20 04:09:12;;;;;;;1.67;0.73;;;;;;;;;;5074128;28;20416;-86
2023/10/20 04:11:38;;;;;;;1.80;0.70;;;;;;;;;;5073846;28;20913;-85
2023/10/20 04:14:07;;;;;;;1.77;0.60;;;;;;;;;;5074037;28;20977;-85
2023/10/20 04:16:41;;;;;;;2.03;1.03;;;;;;;;;;5072762;28;20810;-80
2023/10/20 04:19:09;;;;;;;2.33;1.10;;;;;;;;;;5074048;28;20405;-80
2023/10/20 04:21:35;;;;;;;1.30;0.60;;;;;;;;;;5073929;28;20901;-83
2023/10/20 04:24:01;;;;;;;4.33;0.57;;;;;;;;;;5073979;28;20522;-84
2023/10/20 04:26:30;;;;;;;2.57;1.60;;;;;;;;;;5073570;28;20440;-86
2023/10/20 04:29:13;;;;;;;1.40;0.67;;;;;;;;;;5073849;28;20395;-86
2023/10/20 04:48:15;;;;;;;1.37;0.70;;;;;;;;;;5073266;28;20468;-87
2023/10/20 04:51:08;;;;;;;2.10;1.10;;;;;;;;;;5072428;28;20411;-86
2023/10/20 04:53:52;;;;;;;1.60;1.23;;;;;;;;;;5073524;28;20444;-88
2023/10/20 04:56:32;;;;;;;1.23;0.53;;;;;;;;;;5071892;28;20555;-88
2023/10/20 04:59:04;;;;;;;2.47;0.80;;;;;;;;;;5073551;28;20404;-85
2023/10/20 05:01:40;;;;;;;2.50;0.60;;;;;;;;;;5073322;28;20913;-84
2023/10/20 05:04:28;;;;;;;1.80;0.70;;;;;;;;;;5072049;28;20411;-84
2023/10/20 05:06:58;;;;;;;2.07;0.47;;;;;;;;;;5073313;28;20431;-87
2023/10/20 05:09:25;;;;;;;2.10;1.07;;;;;;;;;;5072757;28;20767;-86
2023/10/20 05:11:51;;;;;;;1.97;1.07;;;;;;;;;;5072717;28;20508;-85
2023/10/20 05:14:17;;;;;;;1.60;0.60;;;;;;;;;;5073008;28;20404;-79
2023/10/20 05:16:43;;;;;;;1.80;0.80;;;;;;;;;;5073016;28;20419;-85
2023/10/20 05:19:10;;;;;;;2.43;1.43;;;;;;;;;;5073051;28;20403;-81
2023/10/20 05:21:38;;;;;;;2.03;1.10;;;;;;;;;;5073057;28;20414;-78
2023/10/20 05:24:04;;;;;;;2.00;0.90;;;;;;;;;;5071733;28;20420;-79
2023/10/20 05:26:31;;;;;;;1.83;1.13;;;;;;;;;;5072563;28;20417;-81
2023/10/20 05:28:57;;;;;;;1.83;0.63;;;;;;;;;;5071700;28;20431;-82
2023/10/20 05:31:27;;;;;;;1.60;0.87;;;;;;;;;;5071675;28;20912;-77
2023/10/20 05:33:53;;;;;;;1.53;0.87;;;;;;;;;;5071669;28;20416;-78
2023/10/20 05:36:19;;;;;;;2.03;0.70;;;;;;;;;;5072791;28;20870;-83
2023/10/20 05:38:45;;;;;;;3.90;1.00;;;;;;;;;;5072810;28;20890;-80
2023/10/20 05:41:11;;;;;;;2.13;0.90;;;;;;;;;;5072442;28;20435;-83
2023/10/20 05:43:38;;;;;;;2.40;0.90;;;;;;;;;;5072789;28;20409;-82
2023/10/20 05:46:04;;;;;;;1.70;0.60;;;;;;;;;;5072739;28;20427;-80
2023/10/20 05:48:31;;;;;;;2.43;1.50;;;;;;;;;;5072621;28;20459;-83
2023/10/20 05:50:57;;;;;;;1.83;0.70;;;;;;;;;;5072819;28;20416;-85
2023/10/20 05:53:23;;;;;;;1.53;0.90;;;;;;;;;;5072729;28;20399;-79
2023/10/20 05:55:49;;;;;;;1.63;0.73;;;;;;;;;;5072260;28;20878;-83
2023/10/20 05:58:15;;;;;;;1.37;0.73;;;;;;;;;;5072721;28;20405;-78
2023/10/20 06:00:42;;;;;;;1.33;0.70;;;;;;;;;;5072590;28;20413;-79
2023/10/20 06:03:08;;;;;;;1.40;1.10;;;;;;;;;;5071385;28;20263;-78
2023/10/20 06:05:34;;;;;;;1.80;0.53;;;;;;;;;;5072413;28;20557;-79
2023/10/20 06:08:01;;;;;;;1.20;0.60;;;;;;;;;;5072554;28;20498;-79
2023/10/20 06:10:27;;;;;;;1.57;0.67;;;;;;;;;;5072166;28;20428;-79
2023/10/20 06:12:53;;;;;;;1.60;0.80;;;;;;;;;;5072524;28;20407;-81
2023/10/20 06:15:20;;;;;;;2.17;0.70;;;;;;;;;;5072437;28;20848;-81
2023/10/20 06:17:46;;;;;;;1.60;0.70;;;;;;;;;;5071213;28;20412;-76
2023/10/20 06:20:13;;;;;;;1.67;1.03;;;;;;;;;;5072456;28;20784;-81
2023/10/20 06:22:39;;;;;;;1.60;0.87;;;;;;;;;;5075729;28;20494;-82
2023/10/20 06:25:10;;;;;;;1.23;0.63;;;;;;;;;;5075800;28;20460;-81
2023/10/20 06:27:36;;;;;;;1.23;0.60;;;;;;;;;;5076076;28;20527;-80
2023/10/20 06:30:14;;;;;;;1.53;0.73;;;;;;;;;;5076038;28;20443;-77
2023/10/20 06:32:44;;;;;;;2.40;1.27;;;;;;;;;;5075889;28;20498;-82
2023/10/20 06:35:12;;;;;;;1.97;0.83;;;;;;;;;;5075940;28;20485;-81
2023/10/20 06:37:46;;;;;;;1.73;1.53;;;;;;;;;;5075827;28;20427;-76
2023/10/20 06:40:15;;;;;;;1.53;0.70;;;;;;;;;;5075633;28;20403;-77
2023/10/20 06:42:41;;;;;;;1.80;1.10;;;;;;;;;;5074586;28;20421;-80
2023/10/20 06:45:08;;;;;;;2.00;0.90;;;;;;;;;;5075767;28;20817;-80
2023/10/20 06:47:34;;;;;;;2.80;1.50;;;;;;;;;;5075489;28;20530;-80
2023/10/20 06:50:00;;;;;;;2.20;1.17;;;;;;;;;;5075653;28;20521;-81
2023/10/20 06:52:26;;;;;;;4.00;1.57;;;;;;;;;;5076524;28;20451;-81
2023/10/20 06:54:56;;;;;;;3.07;1.80;;;;;;;;;;5075516;28;20546;-83
2023/10/20 06:57:22;;;;;;;2.70;1.70;;;;;;;;;;5075522;28;20429;-83
2023/10/20 06:59:49;;;;;;;3.70;1.43;;;;;;;;;;5075463;28;20400;-79
2023/10/20 07:02:15;;;;;;;3.27;1.40;;;;;;;;;;5074021;28;20425;-81
2023/10/20 07:04:41;;;;;;;4.23;1.87;;;;;;;;;;5075418;28;20418;-82
2023/10/20 07:07:12;;;;;;;2.93;1.90;;;;;;;;;;5075249;28;20776;-82
2023/10/20 07:09:38;;;;;;;1.70;0.80;;;;;;;;;;5075351;28;20415;-82
2023/10/20 07:12:06;;;;;;;2.53;1.43;;;;;;;;;;5075079;28;20412;-83
2023/10/20 07:14:32;;;;;;;2.53;1.37;;;;;;;;;;5075051;28;20505;-81
2023/10/20 07:17:01;;;;;;;2.27;1.20;;;;;;;;;;5075149;28;20897;-84
2023/10/20 07:19:26;;;;;;;2.40;1.13;;;;;;;;;;5075185;28;20406;-75
2023/10/20 07:21:54;;;;;;;2.10;1.20;;;;;;;;;;5075041;28;20506;-79
2023/10/20 07:24:19;;;;;;;2.77;1.33;;;;;;;;;;5075029;28;20409;-82
2023/10/20 07:26:46;;;;;;;3.00;1.30;;;;;;;;;;5074682;28;20411;-82
2023/10/20 07:29:12;;;;;;;2.53;1.43;;;;;;;;;;5074954;28;20417;-83
2023/10/20 07:31:40;;;;;;;2.00;1.07;;;;;;;;;;5074945;28;20409;-81
2023/10/20 07:34:09;;;;;;;3.23;1.00;;;;;;;;;;5074132;28;20511;-84
2023/10/20 07:36:35;;;;;;;2.50;1.40;;;;;;;;;;5074768;28;20461;-82
2023/10/20 07:39:01;;;;;;;3.37;1.73;;;;;;;;;;5074590;28;20412;-83
2023/10/20 07:41:27;;;;;;;2.50;1.37;;;;;;;;;;5074359;28;20426;-82
2023/10/20 07:43:53;;;;;;;1.97;1.47;;;;;;;;;;5073315;28;20450;-81
2023/10/20 07:46:21;;;;;;;2.53;1.43;;;;;;;;;;5074604;28;20411;-82
2023/10/20 07:48:47;;;;;;;2.47;1.57;;;;;;;;;;5074438;28;20461;-79
2023/10/20 07:51:13;;;;;;;3.07;2.13;;;;;;;;;;5074509;28;20989;-84
2023/10/20 07:53:39;;;;;;;2.93;2.03;;;;;;;;;;5074457;28;20764;-87
2023/10/20 07:56:05;;;;;;;3.27;2.77;;;;;;;;;;5073936;28;20520;-84
2023/10/20 07:58:32;;;;;;;4.47;2.77;;;;;;;;;;5074331;28;20439;-84
2023/10/20 08:01:00;;;;;;;2.70;1.77;;;;;;;;;;5074364;28;20404;-83
2023/10/20 08:03:26;;;;;;;3.07;2.00;;;;;;;;;;5074251;28;20778;-87
2023/10/20 08:05:52;;;;;;;3.80;2.40;;;;;;;;;;5074125;28;20410;-80
2023/10/20 08:08:18;;;;;;;3.50;2.67;;;;;;;;;;5074150;28;20458;-81
2023/10/20 08:10:44;;;;;;;4.93;2.60;;;;;;;;;;5073835;28;20495;-79
2023/10/20 08:13:10;;;;;;;3.97;2.47;;;;;;;;;;5074223;28;20402;-82
2023/10/20 08:15:39;;;;;;;4.70;3.33;;;;;;;;;;5061382;28;20519;-88
2023/10/20 08:18:06;;;;;;;3.93;2.60;;;;;;;;;;5054485;28;20409;-75
2023/10/20 08:20:32;;;;;;;2.93;2.30;;;;;;;;;;5054131;28;20414;-75
2023/10/20 08:23:00;;;;;;;4.10;2.30;;;;;;;;;;5056186;28;20415;-86
2023/10/20 08:25:26;;;;;;;4.50;3.30;;;;;;;;;;5044727;28;20504;-79
2023/10/20 08:27:51;;;;;;;5.63;3.90;;;;;;;;;;5056068;28;20416;-81
2023/10/20 08:30:20;;;;;;;4.73;3.20;;;;;;;;;;5074079;28;20494;-87
2023/10/20 08:32:46;;;;;;;4.93;3.00;;;;;;;;;;5071543;28;20814;-77
2023/10/20 08:35:14;;;;;;;5.10;3.23;;;;;;;;;;5061338;28;20468;-82
2023/10/20 08:37:39;;;;;;;6.70;5.63;;;;;;;;;;5067927;28;20414;-87
2023/10/20 08:40:13;;;;;;;10.73;7.80;;;;;;;;;;5073402;28;20512;-81
2023/10/20 08:42:39;;;;;;;10.30;6.33;;;;;;;;;;5073529;28;20401;-75
2023/10/20 08:45:11;;;;;;;6.13;4.23;;;;;;;;;;5072574;28;20470;-83
2023/10/20 08:47:37;;;;;;;10.07;7.47;;;;;;;;;;5073677;28;20810;-83
2023/10/20 08:50:07;;;;;;;29.93;16.57;;;;;;;;;;5073668;28;20507;-87
2023/10/20 08:52:33;;;;;;;19.50;10.60;;;;;;;;;;5073861;28;20412;-78
2023/10/20 08:54:59;;;;;;;16.93;12.37;;;;;;;;;;5064929;28;20813;-80
2023/10/20 08:57:26;;;;;;;42.67;28.53;;;;;;;;;;5051739;28;20491;-79
2023/10/20 08:59:53;;;;;;;11.47;6.90;;;;;;;;;;5073467;28;20459;-83
2023/10/20 09:02:19;;;;;;;7.60;6.13;;;;;;;;;;5067060;28;20518;-82
2023/10/20 09:04:50;;;;;;;7.33;5.23;;;;;;;;;;5073435;28;20404;-87
2023/10/20 09:07:16;;;;;;;8.47;5.83;;;;;;;;;;5073305;28;20412;-81
2023/10/20 09:09:42;;;;;;;7.23;5.23;;;;;;;;;;5072992;28;20883;-75
2023/10/20 09:12:08;;;;;;;8.17;5.17;;;;;;;;;;5073387;28;20485;-75
2023/10/20 09:14:38;;;;;;;8.10;5.70;;;;;;;;;;5073107;28;20457;-76
2023/10/20 09:17:04;;;;;;;7.70;6.20;;;;;;;;;;5072407;28;20468;-87
2023/10/20 09:19:30;;;;;;;7.20;5.13;;;;;;;;;;5073093;28;20173;-75
2023/10/20 09:21:57;;;;;;;6.70;4.87;;;;;;;;;;5073231;28;20419;-82
2023/10/20 09:24:27;;;;;;;7.97;5.90;;;;;;;;;;5072828;28;20391;-82
2023/10/20 09:26:53;;;;;;;5.87;5.13;;;;;;;;;;5073108;28;20454;-78
2023/10/20 09:29:21;;;;;;;6.10;4.17;;;;;;;;;;5073225;28;20400;-76
2023/10/20 09:31:47;;;;;;;6.97;4.93;;;;;;;;;;5072305;28;20549;-87
2023/10/20 09:34:14;;;;;;;4.97;3.40;;;;;;;;;;5072981;28;20413;-84
2023/10/20 09:36:42;;;;;;;8.93;5.00;;;;;;;;;;5072880;28;20412;-81
2023/10/20 09:39:11;;;;;;;7.03;4.67;;;;;;;;;;5072925;28;20404;-82
2023/10/20 09:41:38;;;;;;;6.63;5.93;;;;;;;;;;5072573;28;20541;-84
2023/10/20 09:44:08;;;;;;;5.57;3.73;;;;;;;;;;5072965;28;20483;-85
2023/10/20 09:46:43;;;;;;;5.23;4.07;;;;;;;;;;5072737;28;20989;-84
2023/10/20 09:49:14;;;;;;;5.63;3.50;;;;;;;;;;5072944;28;20434;-84
2023/10/20 09:51:40;;;;;;;5.43;2.93;;;;;;;;;;5072895;28;20775;-85
2023/10/20 09:54:06;;;;;;;5.80;3.37;;;;;;;;;;5054840;28;20783;-80
2023/10/20 09:56:32;;;;;;;4.13;2.90;;;;;;;;;;5074121;28;20471;-75
2023/10/20 09:59:00;;;;;;;5.30;3.53;;;;;;;;;;5076702;28;20438;-77
2023/10/20 10:01:26;;;;;;;5.50;4.30;;;;;;;;;;5076782;28;20415;-86
2023/10/20 10:04:03;;;;;;;5.43;4.40;;;;;;;;;;5076614;28;20413;-86
2023/10/20 10:06:34;;;;;;;6.73;3.47;;;;;;;;;;5076702;28;20415;-85
2023/10/20 10:09:00;;;;;;;6.07;3.83;;;;;;;;;;5076835;28;20405;-86
2023/10/20 10:11:29;;;;;;;5.93;4.43;;;;;;;;;;5058216;28;20427;-86
2023/10/20 10:14:04;;;;;;;5.57;3.87;;;;;;;;;;5076587;28;20409;-79
2023/10/20 10:16:30;;;;;;;4.30;2.67;;;;;;;;;;5076379;28;20555;-83
2023/10/20 10:19:09;;;;;;;5.30;2.93;;;;;;;;;;5076557;28;20518;-87
2023/10/20 10:21:39;;;;;;;5.47;2.80;;;;;;;;;;5076343;28;20900;-88
2023/10/20 10:24:11;;;;;;;4.30;2.80;;;;;;;;;;5076507;28;20452;-87
2023/10/20 10:26:46;;;;;;;3.57;3.03;;;;;;;;;;5076362;28;20424;-86
2023/10/20 10:29:12;;;;;;;6.23;2.93;;;;;;;;;;5076511;28;20474;-85
2023/10/20 10:31:38;;;;;;;4.03;2.13;;;;;;;;;;5076303;28;20408;-87
2023/10/20 10:34:04;;;;;;;3.80;2.40;;;;;;;;;;5076311;28;20440;-79
2023/10/20 10:36:48;;;;;;;3.87;2.60;;;;;;;;;;5058102;28;20584;-86
2023/10/20 10:39:23;;;;;;;4.80;2.40;;;;;;;;;;5075837;28;20408;-85
2023/10/20 10:41:50;;;;;;;4.00;2.13;;;;;;;;;;5076146;28;20403;-87
2023/10/20 10:44:17;;;;;;;5.53;1.70;;;;;;;;;;5076045;28;20424;-81
2023/10/20 10:46:43;;;;;;;4.03;2.40;;;;;;;;;;5075776;28;20498;-89
2023/10/20 10:49:10;;;;;;;5.47;4.03;;;;;;;;;;5075837;28;20417;-84
2023/10/20 10:51:48;;;;;;;3.40;1.80;;;;;;;;;;5075902;28;20404;-87
2023/10/20 10:54:14;;;;;;;3.30;2.03;;;;;;;;;;5075492;28;20412;-84
2023/10/20 10:56:43;;;;;;;4.35;2.45;;;;;;;;;;5074515;28;20429;-84
2023/10/20 10:59:10;;;;;;;2.83;2.40;;;;;;;;;;5057593;28;20238;-83
2023/10/20 11:01:37;;;;;;;3.77;2.00;;;;;;;;;;5075757;28;21047;-85
2023/10/20 11:04:03;;;;;;;3.77;2.37;;;;;;;;;;5075665;28;20811;-85
2023/10/20 11:06:32;;;;;;;3.90;3.17;;;;;;;;;;5075698;28;20495;-83
2023/10/20 11:08:58;;;;;;;3.63;3.00;;;;;;;;;;5074684;28;20418;-85
2023/10/20 11:11:27;;;;;;;4.23;1.90;;;;;;;;;;5075363;28;20418;-87
2023/10/20 11:13:53;;;;;;;3.53;1.90;;;;;;;;;;5075567;28;20416;-86
2023/10/20 11:16:19;;;;;;;2.77;1.40;;;;;;;;;;5075638;28;20831;-84
2023/10/20 11:18:46;;;;;;;3.47;2.60;;;;;;;;;;5075643;28;20405;-81
2023/10/20 11:21:12;;;;;;;3.20;2.37;;;;;;;;;;5075527;28;20411;-86
2023/10/20 11:23:38;;;;;;;3.70;1.53;;;;;;;;;;5075610;28;20515;-81
2023/10/20 11:26:14;;;;;;;2.40;1.40;;;;;;;;;;5074928;28;20902;-88
2023/10/20 11:28:40;;;;;;;4.57;4.00;;;;;;;;;;5075371;28;20438;-86
2023/10/20 11:31:06;;;;;;;3.00;2.43;;;;;;;;;;5075440;28;20411;-84
2023/10/20 11:33:32;;;;;;;3.07;1.57;;;;;;;;;;5075421;28;20407;-88
2023/10/20 11:36:00;;;;;;;4.87;2.00;;;;;;;;;;5075309;28;20529;-84
2023/10/20 11:38:27;;;;;;;2.40;1.50;;;;;;;;;;5075350;28;20410;-89
2023/10/20 11:40:53;;;;;;;2.37;1.90;;;;;;;;;;5074825;28;20413;-87
2023/10/20 11:43:19;;;;;;;3.33;1.43;;;;;;;;;;5057435;28;20504;-90
2023/10/20 11:45:45;;;;;;;3.27;2.00;;;;;;;;;;5075510;28;20921;-89
2023/10/20 11:48:11;;;;;;;3.40;1.20;;;;;;;;;;5075032;28;20457;-89
2023/10/20 11:50:37;;;;;;;4.83;1.30;;;;;;;;;;5075077;28;20418;-89
2023/10/20 11:53:03;;;;;;;3.07;2.77;;;;;;;;;;5075118;28;20409;-89
2023/10/20 11:55:29;;;;;;;4.03;2.33;;;;;;;;;;5074590;28;20475;-87
2023/10/20 11:57:55;;;;;;;2.60;1.83;;;;;;;;;;5074763;28;20412;-78
2023/10/20 12:00:21;;;;;;;1.90;1.07;;;;;;;;;;5074670;28;20877;-88
2023/10/20 12:02:48;;;;;;;2.40;1.80;;;;;;;;;;5074782;28;20409;-89
2023/10/20 12:05:14;;;;;;;3.97;2.33;;;;;;;;;;5074849;28;20413;-78
2023/10/20 12:07:40;;;;;;;3.20;1.63;;;;;;;;;;5074496;28;20504;-74
2023/10/20 12:10:07;;;;;;;3.83;3.00;;;;;;;;;;5074152;28;20509;-78
2023/10/20 12:12:33;;;;;;;3.73;2.13;;;;;;;;;;5078720;28;20409;-76
2023/10/20 12:15:00;;;;;;;7.50;5.33;;;;;;;;;;5071763;28;20554;-79
2023/10/20 12:17:26;;;;;;;4.80;3.53;;;;;;;;;;5074369;28;20416;-83
2023/10/20 12:19:51;;;;;;;2.07;1.57;;;;;;;;;;5074457;28;20468;-81
2023/10/20 12:22:18;;;;;;;2.80;1.60;;;;;;;;;;5054832;28;20405;-80
2023/10/20 12:24:44;;;;;;;2.70;2.40;;;;;;;;;;5053541;28;20413;-75
2023/10/20 12:27:10;;;;;;;2.80;2.00;;;;;;;;;;5053918;28;20746;-81
2023/10/20 12:29:36;;;;;;;2.47;1.33;;;;;;;;;;5053812;28;20516;-77
2023/10/20 12:32:03;;;;;;;1.47;0.70;;;;;;;;;;5058698;28;20413;-78
2023/10/20 12:34:30;;;;;;;2.10;1.00;;;;;;;;;;5065725;28;21007;-77
2023/10/20 12:36:59;;;;;;;2.43;0.97;;;;;;;;;;5064053;28;20801;-76
2023/10/20 12:39:27;;;;;;;1.70;0.67;;;;;;;;;;5062421;28;20417;-77
2023/10/20 12:41:54;;;;;;;1.80;0.53;;;;;;;;;;5062138;28;20413;-76
2023/10/20 12:44:20;;;;;;;1.10;0.63;;;;;;;;;;5064038;28;20429;-75
2023/10/20 12:46:46;;;;;;;1.30;0.50;;;;;;;;;;5062523;28;20938;-79
2023/10/20 12:49:12;;;;;;;1.47;0.60;;;;;;;;;;5062180;28;20420;-84
2023/10/20 12:51:40;;;;;;;1.43;0.87;;;;;;;;;;5063907;28;20404;-81
2023/10/20 12:54:07;;;;;;;1.87;0.40;;;;;;;;;;5062363;28;20406;-83
2023/10/20 12:56:32;;;;;;;2.03;0.83;;;;;;;;;;5061946;28;20464;-81
2023/10/20 12:58:59;;;;;;;1.17;0.50;;;;;;;;;;5063671;28;20478;-81
2023/10/20 13:01:25;;;;;;;0.73;0.50;;;;;;;;;;5062498;28;20410;-83
2023/10/20 13:03:51;;;;;;;1.57;0.60;;;;;;;;;;5062016;28;20414;-84
2023/10/20 13:06:17;;;;;;;1.53;0.30;;;;;;;;;;5045735;28;20457;-76
2023/10/20 13:08:45;;;;;;;2.40;0.50;;;;;;;;;;5060495;28;20940;-80
2023/10/20 13:11:11;;;;;;;0.87;0.50;;;;;;;;;;5053039;28;20416;-77
2023/10/20 13:13:37;;;;;;;1.33;0.70;;;;;;;;;;5052928;28;20409;-77
2023/10/20 13:16:03;;;;;;;2.07;0.57;;;;;;;;;;5052922;28;20487;-76
2023/10/20 13:18:30;;;;;;;1.30;0.43;;;;;;;;;;5053321;28;20425;-76
2023/10/20 13:20:56;;;;;;;1.50;0.83;;;;;;;;;;5053019;28;20487;-75
2023/10/20 13:23:22;;;;;;;0.83;0.30;;;;;;;;;;5052996;28;20420;-75
2023/10/20 13:25:48;;;;;;;0.93;0.50;;;;;;;;;;5034750;28;20498;-78
2023/10/20 13:28:14;;;;;;;0.90;0.40;;;;;;;;;;5052896;28;20781;-78
2023/10/20 13:30:41;;;;;;;2.20;0.50;;;;;;;;;;5052416;28;20910;-75
2023/10/20 13:33:07;;;;;;;1.80;0.43;;;;;;;;;;5052945;28;20408;-76
2023/10/20 13:35:36;;;;;;;1.20;1.10;;;;;;;;;;5053064;28;20472;-77
2023/10/20 13:38:03;;;;;;;1.13;0.60;;;;;;;;;;5053135;28;20410;-77
2023/10/20 13:40:28;;;;;;;1.20;0.40;;;;;;;;;;5052496;28;20413;-76
2023/10/20 13:42:55;;;;;;;0.90;0.30;;;;;;;;;;5052764;28;20435;-76
2023/10/20 13:45:20;;;;;;;1.37;0.40;;;;;;;;;;5052894;28;20421;-76
2023/10/20 13:47:48;;;;;;;1.10;0.20;;;;;;;;;;5052607;28;20959;-77
2023/10/20 13:50:14;;;;;;;1.33;0.70;;;;;;;;;;5052781;28;20517;-76
2023/10/20 13:52:40;;;;;;;1.53;0.70;;;;;;;;;;5052755;28;20488;-76
2023/10/20 13:55:06;;;;;;;0.70;0.20;;;;;;;;;;5052255;28;20595;-78
2023/10/20 13:57:32;;;;;;;2.20;0.70;;;;;;;;;;5052340;28;20412;-78
2023/10/20 13:59:58;;;;;;;1.53;0.40;;;;;;;;;;5034806;28;20169;-78
2023/10/20 14:02:24;;;;;;;0.93;0.30;;;;;;;;;;5052607;28;20423;-77
2023/10/20 14:04:50;;;;;;;2.10;0.43;;;;;;;;;;5052690;28;20409;-75
2023/10/20 14:07:16;;;;;;;1.10;0.40;;;;;;;;;;5052557;28;20496;-77
2023/10/20 14:09:42;;;;;;;1.00;0.50;;;;;;;;;;5052229;28;20822;-78
2023/10/20 14:12:08;;;;;;;1.27;0.70;;;;;;;;;;5052480;28;20406;-77
2023/10/20 14:14:34;;;;;;;1.17;0.30;;;;;;;;;;5052524;28;20414;-76
2023/10/20 14:17:06;;;;;;;1.60;0.40;;;;;;;;;;5052473;28;20418;-79
2023/10/20 14:19:32;;;;;;;2.40;0.60;;;;;;;;;;5052569;28;20812;-78
2023/10/20 14:21:58;;;;;;;1.30;0.93;;;;;;;;;;5034506;28;20419;-76
2023/10/20 14:24:24;;;;;;;1.37;0.73;;;;;;;;;;5052103;28;20410;-84
2023/10/20 14:26:50;;;;;;;1.73;0.83;;;;;;;;;;5052412;28;20421;-76
2023/10/20 14:29:17;;;;;;;1.33;0.53;;;;;;;;;;5052481;28;20975;-78
2023/10/20 14:31:43;;;;;;;1.17;0.20;;;;;;;;;;5052365;28;20434;-76
2023/10/20 14:34:10;;;;;;;0.60;0.30;;;;;;;;;;5052350;28;20404;-76
2023/10/20 14:36:36;;;;;;;1.23;0.53;;;;;;;;;;5052217;28;20984;-76
2023/10/20 14:39:03;;;;;;;0.60;0.20;;;;;;;;;;5051926;28;20414;-78
2023/10/20 14:41:28;;;;;;;0.87;0.40;;;;;;;;;;5052296;28;20464;-83
2023/10/20 14:43:54;;;;;;;0.63;0.30;;;;;;;;;;5054088;28;20405;-82
2023/10/20 14:46:20;;;;;;;0.70;0.30;;;;;;;;;;5055478;28;20422;-78
2023/10/20 14:48:46;;;;;;;1.10;0.23;;;;;;;;;;5062288;28;20488;-80
2023/10/20 14:51:13;;;;;;;1.00;0.20;;;;;;;;;;5064568;28;20436;-75
2023/10/20 14:53:39;;;;;;;1.00;0.40;;;;;;;;;;5064186;28;20403;-77
2023/10/20 14:56:06;;;;;;;1.17;0.60;;;;;;;;;;5066033;28;20466;-75
2023/10/20 14:58:31;;;;;;;1.20;0.90;;;;;;;;;;5064006;28;20415;-78